NEODyS-2

Near Earth Objects - Dynamic Site
NEODyS ∴ Observatories ∴ Site 691 ∴ Obs & residuals
Contact »
691  ▹ 
OBSERVATIONS AND RESIDUALS

691-Steward Observatory, Kitt Peak-Spacewatch

Detections | Residuals | Detections & Residuals

[1-200] [201-400] [401-600] [601-800] [801-1000] [1001-1200] [1201-1400] [1401-1600] [1601-1800] [1801-2000] [2001-2200] [2201-2400] [2401-2600] [2601-2800] [2801-3000] [3001-3200] [3201-3400] [3401-3600] [3601-3800] [3801-4000] [4001-4200] [4201-4400] [4401-4600] [4601-4800] [4801-5000] [5001-5200] [5201-5400] [5401-5600] [5601-5800] [5801-6000] [6001-6200] [6201-6400] [6401-6600] [6601-6800] [6801-7000] [7001-7200] [7201-7400] [7401-7600] [7601-7800] [7801-8000] [8001-8200] [8201-8400] [8401-8600] [8601-8800] [8801-9000] [9001-9200] [9201-9400] [9401-9600] [9601-9800] [9801-10000] [10001-10200] [10201-10400] [10401-10600] [10601-10800] [10801-11000] [11001-11200] [11201-11400] [11401-11600] [11601-11800] [11801-12000] [12001-12200] [12201-12400] [12401-12600] [12601-12800] [12801-13000] [13001-13200] [13201-13400] [13401-13600] [13601-13800] [13801-14000] [14001-14200] [14201-14400] [14401-14600] [14601-14800] [14801-15000] [15001-15200] [15201-15400] [15401-15600] [15601-15800] [15801-16000] [16001-16200] [16201-16400] [16401-16600] [16601-16800] [16801-17000] [17001-17200] [17201-17400] [17401-17600] [17601-17800] [17801-18000] [18001-18200] [18201-18400] [18401-18600] [18601-18800] [18801-19000] [19001-19200] [19201-19400] [19401-19600] [19601-19800] [19801-20000] [20001-20200] [20201-20400] [20401-20600] [20601-20800] [20801-21000] [21001-21200] [21201-21400] [21401-21600] [21601-21800] [21801-22000] [22001-22200] [22201-22400] [22401-22600] [22601-22800] [22801-23000] [23001-23200] [23201-23400] [23401-23600] [23601-23800] [23801-24000] [24001-24200] [24201-24400] [24401-24600] [24601-24800] [24801-25000] [25001-25200] [25201-25400] [25401-25600] [25601-25800] [25801-26000] [26001-26200] [26201-26400] [26401-26600] [26601-26800] [26801-27000] [27001-27200] [27201-27400] [27401-27600] [27601-27800] [27801-28000] [28001-28200] [28201-28400] [28401-28600] [28601-28800] [28801-29000] [29001-29200] [29201-29400] [29401-29600] [29601-29800] [29801-30000] [30001-30200] [30201-30400] [30401-30600] [30601-30800] [30801-31000] [31001-31200] [31201-31400] [31401-31600] [31601-31800] [31801-32000] [32001-32200] [32201-32400] [32401-32600] [32601-32800] [32801-33000] [33001-33200] [33201-33400] [33401-33600] [33601-33800] [33801-34000] [34001-34200] [34201-34400] [34401-34600] [34601-34800] [34801-35000] [35001-35200] [35201-35400] [35401-35600] [35601-35800] [35801-36000] [36001-36200] [36201-36400] [36401-36600] [36601-36800] [36801-37000] [37001-37200] [37201-37400] [37401-37600] [37601-37800] [37801-38000] [38001-38200] [38201-38400] [38401-38600] [38601-38800] [38801-39000] [39001-39200] [39201-39400] [39401-39600] [39601-39800] [39801-40000] [40001-40200] [40201-40400] [40401-40600] [40601-40800] [40801-41000] [41001-41200] [41201-41400] [41401-41600] [41601-41800] [41801-42000] [42001-42200] [42201-42400] [42401-42600] [42601-42800] [42801-43000] [43001-43200] [43201-43400] [43401-43600] [43601-43800] [43801-44000] [44001-44200] [44201-44400] [44401-44600] [44601-44800] [44801-45000] [45001-45200] [45201-45400] [45401-45600] [45601-45800] [45801-46000] [46001-46200] [46201-46400] [46401-46600] [46601-46800] [46801-47000] [47001-47200] [47201-47400] [47401-47600] [47601-47800] [47801-48000] [48001-48200] [48201-48400] [48401-48600] [48601-48800] [48801-49000] [49001-49200] [49201-49400] [49401-49600] [49601-49800] [49801-50000] [50001-50200] [50201-50388]

Designation T Tech N Date Right Ascension Declination Apparent Magnitude Star Catalog Site code χ Used A Used M
yr-mo-day precision hr:min:sec precision rms F bias residual deg min sec precision rms F bias residual mag/col rms residual
Taranis O C 2016-05-13.26368 1.000E-05 13:41:57.220 1.500E-01 0.500 F 0.258 -0.284 +05° 33' 20.70" 1.000E-01 0.500 F 0.092 -0.059 o 691 0.58 Yes No
2007JX2 O C H 2016-05-13.27030 1.000E-05 15:50:42.750 1.500E-01 0.500 F 0.156 0.139 -22° 56' 19.60" 1.000E-01 0.500 F 0.122 -0.029 19.6 V 0.70 0.69 o 691 0.29 Yes Yes
2014JY24 O C 2016-05-13.27471 1.000E-05 15:14:52.160 1.500E-01 0.500 F 0.072 1.060 -01° 08' 20.90" 1.000E-01 0.500 F 0.186 -0.435 19.2 V 0.70 -0.03 o 691 2.30 Yes Yes
2016JQ17 O C H 2016-05-13.28115 1.000E-05 15:00:22.120 1.500E-01 0.500 F 0.217 0.542 +23° 39' 33.60" 1.000E-01 0.500 F 0.118 0.077 20.5 V 0.70 -0.14 o 691 1.10 Yes Yes
2014TF64 O C 2016-05-13.28346 1.000E-05 14:38:45.030 1.500E-01 0.500 F 0.041 0.122 +17° 51' 32.00" 1.000E-01 0.500 F 0.242 -0.399 20.2 V 0.70 -0.34 o 691 0.84 Yes Yes
2016HP3 O C 2016-05-13.28558 1.000E-05 14:31:53.610 1.500E-01 0.500 F 0.088 -0.662 +13° 01' 54.30" 1.000E-01 0.500 F 0.156 -0.007 19.8 V 0.70 -0.05 o 691 1.34 Yes Yes
2016JQ17 O C H 2016-05-13.29240 1.000E-05 15:00:20.810 1.500E-01 0.500 F 0.217 0.189 +23° 39' 56.80" 1.000E-01 0.500 F 0.118 -0.152 20.7 V 0.70 0.06 o 691 0.49 Yes Yes
2014TF64 O C 2016-05-13.29470 1.000E-05 14:38:43.150 1.500E-01 0.500 F 0.041 -0.300 +17° 52' 31.70" 1.000E-01 0.500 F 0.242 0.193 20.1 V 0.70 -0.44 o 691 0.72 Yes Yes
2016HP3 O C 2016-05-13.29686 1.000E-05 14:31:57.560 1.500E-01 0.500 F 0.088 -0.414 +13° 03' 01.00" 1.000E-01 0.500 F 0.156 0.213 19.8 V 0.70 -0.05 o 691 0.95 Yes Yes
2016JQ17 O C H 2016-05-13.30412 1.000E-05 15:00:19.480 1.500E-01 0.500 F 0.217 0.300 +23° 40' 20.30" 1.000E-01 0.500 F 0.118 -1.037 o 691 2.17 Yes No
2014TF64 O C 2016-05-13.30647 1.000E-05 14:38:41.210 1.500E-01 0.500 F 0.041 -0.339 +17° 53' 33.60" 1.000E-01 0.500 F 0.242 0.234 20.6 V 0.70 0.06 o 691 0.83 Yes Yes
2016HP3 O C 2016-05-13.30859 1.000E-05 14:32:01.650 1.500E-01 0.500 F 0.088 -0.576 +13° 04' 10.30" 1.000E-01 0.500 F 0.156 0.416 19.4 V 0.70 -0.45 o 691 1.44 Yes Yes
2016HK19 O C H 2016-05-13.31302 1.000E-05 15:50:53.090 1.500E-01 0.500 F 0.082 0.251 +11° 38' 48.60" 1.000E-01 0.500 F 0.286 0.455 20.2 V 0.70 0.15 o 691 1.05 Yes Yes
2016JL6 O C H 2016-05-13.31554 1.000E-05 16:34:54.800 1.500E-01 0.500 F -0.071 0.962 -12° 04' 17.20" 1.000E-01 0.500 F 0.119 -0.736 o 691 2.44 Yes No
2016HN2 O C H 2016-05-13.31788 1.000E-05 17:11:18.170 1.500E-01 0.500 F 0.010 -0.446 -04° 45' 13.50" 1.000E-01 0.500 F 0.224 -0.119 21.2 V 0.70 0.50 o 691 0.96 Yes Yes
2016JH17 O C H 2016-05-13.32294 1.000E-05 16:45:57.650 1.500E-01 0.500 F 0.307 -0.289 +07° 51' 36.20" 1.000E-01 0.500 F 0.093 -0.346 20.8 V 0.70 -0.16 o 691 0.90 Yes Yes
2016JN17 O C H 2016-05-13.32830 1.000E-05 16:06:05.630 1.500E-01 0.500 F 0.165 -0.054 +26° 36' 32.20" 1.000E-01 0.500 F 0.282 0.249 21.1 V 0.70 0.08 o 691 0.51 Yes Yes
2016HM2 O C H 2016-05-13.33072 1.000E-05 17:40:17.890 1.500E-01 0.500 F -0.037 0.382 +14° 13' 37.90" 1.000E-01 0.500 F 0.239 -0.903 o 691 1.96 Yes No
2016JM17 O C H 2016-05-13.33379 1.000E-05 15:48:04.220 1.500E-01 0.500 F 0.117 0.088 +30° 06' 26.20" 1.000E-01 0.500 F 0.285 0.484 21.0 V 0.70 0.01 o 691 1.01 Yes Yes
2016HK19 O C H 2016-05-13.33847 1.000E-05 15:50:53.000 1.500E-01 0.500 F 0.082 -0.397 +11° 36' 37.80" 1.000E-01 0.500 F 0.286 -0.259 20.1 V 0.70 0.06 o 691 0.96 Yes Yes
2016JL6 O C H 2016-05-13.34105 1.000E-05 16:35:02.990 1.500E-01 0.500 F -0.071 0.100 -12° 04' 27.70" 1.000E-01 0.500 F 0.119 -0.508 20.6 V 0.70 0.09 o 691 1.04 Yes Yes
2016HN2 O C H 2016-05-13.34339 1.000E-05 17:11:15.360 1.500E-01 0.500 F 0.010 0.181 -04° 46' 57.60" 1.000E-01 0.500 F 0.224 0.616 20.6 V 0.70 -0.10 o 691 1.32 Yes Yes
2016JH17 O C H 2016-05-13.34852 1.000E-05 16:45:54.840 1.500E-01 0.500 F 0.307 1.614 +07° 51' 19.50" 1.000E-01 0.500 F 0.093 -0.296 o 691 3.27 No No
2016JN17 O C H 2016-05-13.35467 1.000E-05 16:06:01.610 1.500E-01 0.500 F 0.165 -0.728 +26° 36' 05.20" 1.000E-01 0.500 F 0.282 -0.575 21.0 V 0.70 -0.02 o 691 1.86 Yes Yes
2016HM2 O C H 2016-05-13.35770 1.000E-05 17:40:17.530 1.500E-01 0.500 F -0.037 0.170 +14° 13' 32.60" 1.000E-01 0.500 F 0.239 -0.644 o 691 1.33 Yes No
2016JM17 O C H 2016-05-13.36351 1.000E-05 15:48:00.610 1.500E-01 0.500 F 0.117 0.506 +30° 07' 44.90" 1.000E-01 0.500 F 0.285 0.107 21.1 V 0.70 0.11 o 691 1.05 Yes Yes
2016JL6 O C H 2016-05-13.37074 1.000E-05 16:35:12.570 1.500E-01 0.500 F -0.071 -0.190 -12° 04' 39.60" 1.000E-01 0.500 F 0.119 -0.272 20.4 V 0.70 -0.11 o 691 0.67 Yes Yes
2016JH17 O C H 2016-05-13.37816 1.000E-05 16:45:51.320 1.500E-01 0.500 F 0.307 -0.001 +07° 51' 00.20" 1.000E-01 0.500 F 0.093 -0.084 20.8 V 0.70 -0.16 o 691 0.17 Yes Yes
2016JN17 O C H 2016-05-13.38479 1.000E-05 16:05:57.090 1.500E-01 0.500 F 0.165 -0.558 +26° 35' 35.30" 1.000E-01 0.500 F 0.282 -0.275 20.9 V 0.70 -0.12 o 691 1.25 Yes Yes
2016HM2 O C H 2016-05-13.38793 1.000E-05 17:40:17.110 1.500E-01 0.500 F -0.037 -0.071 +14° 13' 26.60" 1.000E-01 0.500 F 0.239 -0.210 o 691 0.44 Yes No
2016JM17 O C H 2016-05-13.39169 1.000E-05 15:47:57.110 1.500E-01 0.500 F 0.117 -0.122 +30° 08' 59.10" 1.000E-01 0.500 F 0.285 -0.510 21.0 V 0.70 0.02 o 691 1.08 Yes Yes
2009HD82 O C 2016-05-13.39414 1.000E-05 13:46:43.560 1.500E-01 0.500 F 0.250 -0.495 +12° 02' 21.00" 1.000E-01 0.500 F 0.145 0.236 o 691 1.10 Yes No
2009HD82 O C 2016-05-13.40612 1.000E-05 13:46:39.940 1.500E-01 0.500 F 0.250 -0.439 +12° 03' 14.50" 1.000E-01 0.500 F 0.145 0.329 o 691 1.10 Yes No
2009HD82 O C 2016-05-13.41801 1.000E-05 13:46:36.370 1.500E-01 0.500 F 0.250 -0.210 +12° 04' 07.30" 1.000E-01 0.500 F 0.145 0.132 o 691 0.50 Yes No
2000AF205 O C H 2016-05-13.43263 1.000E-05 21:38:37.830 1.500E-01 0.500 F -0.100 1.337 -08° 34' 54.30" 1.000E-01 0.500 F 0.329 -0.238 o 691 2.76 Yes No
2004LG O C H 2016-05-13.43992 1.000E-05 21:01:09.740 1.500E-01 0.500 F 0.089 -0.271 +24° 15' 02.50" 1.000E-01 0.500 F 0.169 -0.318 20.3 V 0.70 0.35 o 691 0.88 Yes Yes
2000AF205 O C H 2016-05-13.44520 1.000E-05 21:38:44.410 1.500E-01 0.500 F -0.100 0.667 -08° 34' 10.10" 1.000E-01 0.500 F 0.329 -0.552 o 691 1.75 Yes No
2004LG O C H 2016-05-13.45241 1.000E-05 21:01:12.460 1.500E-01 0.500 F 0.089 0.562 +24° 16' 10.60" 1.000E-01 0.500 F 0.169 1.040 20.3 V 0.70 0.35 o 691 2.48 Yes Yes
2000AF205 O C H 2016-05-13.45773 1.000E-05 21:38:50.880 1.500E-01 0.500 F -0.100 -1.161 -08° 33' 26.70" 1.000E-01 0.500 F 0.329 -1.566 o 691 3.85 No No
2004LG O C H 2016-05-13.46505 1.000E-05 21:01:15.200 1.500E-01 0.500 F 0.089 1.239 +24° 17' 18.70" 1.000E-01 0.500 F 0.169 1.585 o 691 3.85 No No
2016JG29 O C H 2016-05-13.47135 1.000E-05 15:26:02.100 1.500E-01 0.500 F 0.134 -0.415 +01° 46' 23.60" 1.000E-01 0.500 F 0.137 -0.067 o 691 0.97 Yes No
2016HF3 O C H 2016-05-13.47298 1.000E-05 14:34:13.520 1.500E-01 0.500 F 0.188 -0.840 +09° 38' 41.80" 1.000E-01 0.500 F 0.149 0.427 19.1 V 0.70 0.46 o 691 1.89 Yes Yes
2016JG29 O C H 2016-05-13.47488 1.000E-05 15:26:04.520 1.500E-01 0.500 F 0.134 0.367 +01° 45' 50.10" 1.000E-01 0.500 F 0.137 -0.858 o 691 1.99 Yes No
2016HF3 O C H 2016-05-13.47683 1.000E-05 14:34:17.250 1.500E-01 0.500 F 0.188 -0.893 +09° 37' 52.60" 1.000E-01 0.500 F 0.149 0.333 19.1 V 0.70 0.46 o 691 1.91 Yes Yes
2016HF3 O C H 2016-05-13.47999 1.000E-05 14:34:20.390 1.500E-01 0.500 F 0.188 0.098 +09° 37' 12.10" 1.000E-01 0.500 F 0.149 0.172 19.1 V 0.70 0.46 o 691 0.40 Yes Yes
2010KP10 O C H 2016-05-14.17066 1.000E-05 12:23:32.570 1.500E-01 0.500 F 0.173 2.554 -13° 47' 30.80" 1.000E-01 0.500 F -0.053 1.026 o 691 5.38 No No
2016JM6 O C H 2016-05-14.17261 1.000E-05 12:24:52.780 1.500E-01 0.500 F 0.053 -0.230 -12° 03' 03.90" 1.000E-01 0.500 F 0.035 -1.025 o 691 2.11 Yes No
2016JC18 O C H 2016-05-14.17463 1.000E-05 13:03:19.310 1.500E-01 0.500 F 0.310 -1.465 -25° 57' 47.20" 1.000E-01 0.500 F 0.310 -1.183 o 691 3.59 No No
2010KP10 O C H 2016-05-14.18440 1.000E-05 12:23:40.180 1.500E-01 0.500 F 0.173 1.319 -13° 45' 10.00" 1.000E-01 0.500 F -0.053 0.695 o 691 3.05 Yes No
2016JM6 O C H 2016-05-14.18633 1.000E-05 12:24:49.750 1.500E-01 0.500 F 0.053 -0.174 -12° 03' 27.90" 1.000E-01 0.500 F 0.035 -0.769 o 691 1.59 Yes No
2010KP10 O C H 2016-05-14.19814 1.000E-05 12:23:47.810 1.500E-01 0.500 F 0.173 0.471 -13° 42' 49.10" 1.000E-01 0.500 F -0.053 0.397 o 691 1.26 Yes No
2016JM6 O C H 2016-05-14.20007 1.000E-05 12:24:46.720 1.500E-01 0.500 F 0.053 -0.046 -12° 03' 52.40" 1.000E-01 0.500 F 0.035 -1.022 o 691 2.06 Yes No
2016JC18 O C H 2016-05-14.20209 1.000E-05 13:02:50.870 1.500E-01 0.500 F 0.310 -1.015 -26° 01' 26.90" 1.000E-01 0.500 F 0.310 -1.354 o 691 3.24 No No
2016JB6 O C H 2016-05-14.20773 1.000E-05 13:39:48.880 1.500E-01 0.500 F 0.162 1.346 +04° 48' 03.30" 1.000E-01 0.500 F 0.087 -0.700 o 691 3.06 Yes No
2016HE O C H 2016-05-14.21319 1.000E-05 15:01:43.480 1.500E-01 0.500 F 0.314 0.287 -27° 23' 20.20" 1.000E-01 0.500 F 0.324 -0.087 o 691 0.63 Yes No
2016JB6 O C H 2016-05-14.21697 1.000E-05 13:39:48.100 1.500E-01 0.500 F 0.162 1.813 +04° 48' 01.40" 1.000E-01 0.500 F 0.087 -0.802 o 691 3.94 No No
2016HE O C H 2016-05-14.22242 1.000E-05 15:01:43.000 1.500E-01 0.500 F 0.314 1.714 -27° 23' 45.70" 1.000E-01 0.500 F 0.324 -0.344 o 691 3.33 No No
2016JB6 O C H 2016-05-14.22621 1.000E-05 13:39:47.170 1.500E-01 0.500 F 0.162 0.042 +04° 47' 59.70" 1.000E-01 0.500 F 0.087 -0.698 o 691 1.41 Yes No
2016HE O C H 2016-05-14.23167 1.000E-05 15:01:42.320 1.500E-01 0.500 F 0.314 0.531 -27° 24' 11.00" 1.000E-01 0.500 F 0.324 -0.382 o 691 1.37 Yes No
2016JD34 O C H 2016-05-14.24044 1.000E-05 14:14:41.080 1.500E-01 0.500 F 0.134 -1.543 +20° 37' 20.10" 1.000E-01 0.500 F 0.272 0.052 o 691 3.11 Yes No
2014TF64 O C H 2016-05-14.24437 1.000E-05 14:36:13.120 1.500E-01 0.500 F 0.123 0.451 +19° 15' 05.20" 1.000E-01 0.500 F 0.272 0.346 o 691 1.14 Yes No
2016JD34 O C H 2016-05-14.25140 1.000E-05 14:14:40.490 1.500E-01 0.500 F 0.134 0.122 +20° 37' 17.30" 1.000E-01 0.500 F 0.272 -0.684 o 691 1.40 Yes No
2014TF64 O C H 2016-05-14.25531 1.000E-05 14:36:11.280 1.500E-01 0.500 F 0.123 -0.044 +19° 16' 01.80" 1.000E-01 0.500 F 0.272 0.341 o 691 0.69 Yes No
2016JD34 O C H 2016-05-14.26206 1.000E-05 14:14:39.860 1.500E-01 0.500 F 0.134 0.957 +20° 37' 15.30" 1.000E-01 0.500 F 0.272 -0.638 o 691 2.32 Yes No
2016JQ17 O C H 2016-05-14.27026 1.000E-05 14:58:32.510 1.500E-01 0.500 F 0.217 0.156 +24° 13' 33.60" 1.000E-01 0.500 F 0.118 -1.033 o 691 2.10 Yes No
2016HP3 O C H 2016-05-14.27234 1.000E-05 14:38:42.950 1.500E-01 0.500 F 0.069 0.662 +14° 43' 41.10" 1.000E-01 0.500 F 0.181 -0.886 o 691 2.25 Yes No
2016HF3 O C H 2016-05-14.27384 1.000E-05 14:48:53.470 1.500E-01 0.500 F 0.243 0.107 +06° 36' 17.20" 1.000E-01 0.500 F 0.300 -0.418 18.5 V 0.70 0.14 o 691 0.87 Yes Yes
2016JQ17 O C H 2016-05-14.27829 1.000E-05 14:58:31.600 1.500E-01 0.500 F 0.217 0.333 +24° 13' 50.10" 1.000E-01 0.500 F 0.118 -0.969 o 691 2.06 Yes No
2016HP3 O C H 2016-05-14.28037 1.000E-05 14:38:46.130 1.500E-01 0.500 F 0.069 0.172 +14° 44' 34.10" 1.000E-01 0.500 F 0.181 0.028 o 691 0.35 Yes No
2016HF3 O C H 2016-05-14.28187 1.000E-05 14:49:01.940 1.500E-01 0.500 F 0.243 0.094 +06° 34' 17.20" 1.000E-01 0.500 F 0.300 -0.458 18.5 V 0.70 0.15 o 691 0.94 Yes Yes
2016JQ17 O C H 2016-05-14.28632 1.000E-05 14:58:30.670 1.500E-01 0.500 F 0.217 0.238 +24° 14' 07.60" 1.000E-01 0.500 F 0.118 0.106 o 691 0.52 Yes No
2016HP3 O C H 2016-05-14.28839 1.000E-05 14:38:49.370 1.500E-01 0.500 F 0.069 0.551 +14° 45' 26.00" 1.000E-01 0.500 F 0.181 -0.071 o 691 1.13 Yes No
2016HF3 O C H 2016-05-14.28992 1.000E-05 14:49:10.460 1.500E-01 0.500 F 0.243 0.324 +06° 32' 16.20" 1.000E-01 0.500 F 0.300 -0.918 18.6 V 0.70 0.25 o 691 1.96 Yes Yes
2014JY24 O C H 2016-05-14.29640 1.000E-05 15:12:06.710 1.500E-01 0.500 F 0.146 0.016 -01° 29' 01.60" 1.000E-01 0.500 F 0.109 0.062 19.5 V 0.70 0.23 o 691 0.13 Yes Yes
2016JG29 O C H 2016-05-14.29850 1.000E-05 15:34:35.930 1.500E-01 0.500 F 0.012 1.020 -00° 02' 55.50" 1.000E-01 0.500 F 0.187 -1.309 o 691 3.21 No No
2014JY24 O C H 2016-05-14.31055 1.000E-05 15:12:04.370 1.500E-01 0.500 F 0.146 -0.167 -01° 29' 18.80" 1.000E-01 0.500 F 0.109 -0.045 19.4 V 0.70 0.13 o 691 0.35 Yes Yes
2016JG29 O C H 2016-05-14.31258 1.000E-05 15:34:42.240 1.500E-01 0.500 F 0.012 0.655 -00° 04' 31.00" 1.000E-01 0.500 F 0.187 -1.345 o 691 3.11 Yes No
2014JY24 O C H 2016-05-14.32469 1.000E-05 15:12:02.040 1.500E-01 0.500 F 0.146 -0.247 -01° 29' 36.00" 1.000E-01 0.500 F 0.109 -0.169 19.4 V 0.70 0.13 o 691 0.60 Yes Yes
2016JG29 O C H 2016-05-14.32671 1.000E-05 15:34:48.550 1.500E-01 0.500 F 0.012 0.438 -00° 06' 05.20" 1.000E-01 0.500 F 0.187 -0.211 o 691 1.01 Yes No
2016JN17 O C H 2016-05-14.34743 1.000E-05 16:03:37.840 1.500E-01 0.500 F 0.181 -0.850 +26° 18' 58.60" 1.000E-01 0.500 F 0.322 -0.702 o 691 2.21 Yes No
2008GC110 O C H 2016-05-14.34972 1.000E-05 16:23:04.730 1.500E-01 0.500 F 0.112 0.304 +26° 49' 32.50" 1.000E-01 0.500 F 0.313 -0.952 o 691 2.07 Yes No
2016JN17 O C H 2016-05-14.35202 1.000E-05 16:03:37.200 1.500E-01 0.500 F 0.181 0.026 +26° 18' 52.90" 1.000E-01 0.500 F 0.322 -1.446 o 691 2.90 Yes No
2008GC110 O C H 2016-05-14.35436 1.000E-05 16:23:04.370 1.500E-01 0.500 F 0.112 -0.558 +26° 49' 59.00" 1.000E-01 0.500 F 0.313 0.540 o 691 1.59 Yes No
2016JN17 O C H 2016-05-14.35666 1.000E-05 16:03:36.530 1.500E-01 0.500 F 0.181 0.601 +26° 18' 48.40" 1.000E-01 0.500 F 0.322 -0.929 o 691 2.22 Yes No
2008GC110 O C H 2016-05-14.35900 1.000E-05 16:23:04.130 1.500E-01 0.500 F 0.112 0.186 +26° 50' 21.20" 1.000E-01 0.500 F 0.313 -2.251 o 691 4.35 No No
2007JX2 O C H 2016-05-14.36728 1.000E-05 15:47:52.040 1.500E-01 0.500 F 0.220 -0.312 -22° 55' 12.60" 1.000E-01 0.500 F 0.212 -0.346 o 691 0.94 Yes No
2009JR2 O C H 2016-05-14.36936 1.000E-05 15:55:02.130 1.500E-01 0.500 F 0.210 -0.030 -25° 55' 54.80" 1.000E-01 0.500 F 0.402 -1.054 o 691 2.19 Yes No
2016HK19 O C H 2016-05-14.37198 1.000E-05 15:51:06.080 1.500E-01 0.500 F 0.216 -0.047 +10° 06' 05.30" 1.000E-01 0.500 F 0.236 -1.488 o 691 3.02 Yes No
2007JX2 O C H 2016-05-14.37908 1.000E-05 15:47:50.160 1.500E-01 0.500 F 0.220 -0.148 -22° 55' 11.50" 1.000E-01 0.500 F 0.212 -0.233 19.6 V 0.70 0.70 o 691 0.56 Yes Yes
2009JR2 O C H 2016-05-14.38116 1.000E-05 15:54:58.950 1.500E-01 0.500 F 0.210 0.133 -25° 57' 29.40" 1.000E-01 0.500 F 0.402 -2.175 o 691 4.21 No No
2016HK19 O C H 2016-05-14.38379 1.000E-05 15:51:06.080 1.500E-01 0.500 F 0.216 0.236 +10° 05' 01.90" 1.000E-01 0.500 F 0.236 -1.008 o 691 2.10 Yes No
2007JX2 O C H 2016-05-14.39090 1.000E-05 15:47:48.270 1.500E-01 0.500 F 0.220 -0.125 -22° 55' 10.30" 1.000E-01 0.500 F 0.212 -0.063 19.5 V 0.70 0.60 o 691 0.28 Yes Yes
2016HK19 O C H 2016-05-14.39560 1.000E-05 15:51:06.080 1.500E-01 0.500 F 0.216 0.448 +10° 03' 58.40" 1.000E-01 0.500 F 0.236 -0.559 o 691 1.45 Yes No
2016JR33 O C H 2016-05-14.40307 1.000E-05 16:38:19.810 1.500E-01 0.500 F 0.188 0.102 +10° 01' 45.60" 1.000E-01 0.500 F 0.081 -1.975 o 691 3.89 No No
2016JH17 O C H 2016-05-14.40514 1.000E-05 16:43:56.530 1.500E-01 0.500 F 0.332 0.515 +07° 39' 14.00" 1.000E-01 0.500 F 0.119 -0.938 o 691 2.15 Yes No
2016JR33 O C H 2016-05-14.40948 1.000E-05 16:38:19.470 1.500E-01 0.500 F 0.188 0.193 +10° 02' 39.60" 1.000E-01 0.500 F 0.081 -1.843 o 691 3.65 No No
2016JH17 O C H 2016-05-14.41153 1.000E-05 16:43:55.730 1.500E-01 0.500 F 0.332 -0.010 +07° 39' 09.60" 1.000E-01 0.500 F 0.119 -0.750 o 691 1.50 Yes No
2016JR33 O C H 2016-05-14.41588 1.000E-05 16:38:19.070 1.500E-01 0.500 F 0.188 -0.645 +10° 03' 34.00" 1.000E-01 0.500 F 0.081 -1.220 o 691 2.81 Yes No
2016JH17 O C H 2016-05-14.41795 1.000E-05 16:43:54.970 1.500E-01 0.500 F 0.332 0.108 +07° 39' 04.70" 1.000E-01 0.500 F 0.119 -1.036 o 691 2.09 Yes No
2016JL6 O C H 2016-05-14.42394 1.000E-05 16:41:24.320 1.500E-01 0.500 F -0.148 -0.193 -12° 11' 54.20" 1.000E-01 0.500 F 0.162 -0.895 o 691 1.85 Yes No
2016JL6 O C H 2016-05-14.43956 1.000E-05 16:41:29.860 1.500E-01 0.500 F -0.148 2.935 -12° 12' 00.40" 1.000E-01 0.500 F 0.162 -1.079 o 691 6.19 No No
2016HN2 O C H 2016-05-14.44573 1.000E-05 17:09:36.250 1.500E-01 0.500 F 0.020 0.624 -05° 59' 34.90" 1.000E-01 0.500 F 0.239 0.125 o 691 1.31 Yes No
2016JE34 O C H 2016-05-14.44961 1.000E-05 17:19:36.850 1.500E-01 0.500 F 0.075 0.881 +06° 22' 24.70" 1.000E-01 0.500 F 0.189 -0.563 o 691 2.11 Yes No
2016HN2 O C H 2016-05-14.45202 1.000E-05 17:09:35.580 1.500E-01 0.500 F 0.020 0.676 -05° 59' 59.40" 1.000E-01 0.500 F 0.239 -0.497 o 691 1.73 Yes No
2016JE34 O C H 2016-05-14.45592 1.000E-05 17:19:37.170 1.500E-01 0.500 F 0.075 0.413 +06° 22' 30.70" 1.000E-01 0.500 F 0.189 -1.211 o 691 2.59 Yes No
2016HC3 O C H 2016-05-16.15946 1.000E-05 12:02:52.100 1.500E-01 0.500 F 0.371 0.001 -25° 34' 06.00" 1.000E-01 0.500 F 0.267 0.130 o 691 0.26 Yes No
2016HC3 O C H 2016-05-16.16315 1.000E-05 12:02:51.770 1.500E-01 0.500 F 0.371 0.461 -25° 34' 03.60" 1.000E-01 0.500 F 0.267 -0.661 o 691 1.63 Yes No
2016HC3 O C H 2016-05-16.16687 1.000E-05 12:02:51.370 1.500E-01 0.500 F 0.371 0.013 -25° 33' 59.80" 1.000E-01 0.500 F 0.267 -0.081 o 691 0.17 Yes No
2016JC18 O C m 2016-05-16.16987 1.000E-05 12:27:33.160 1.500E-01 0.500 F 0.490 -0.969 -30° 13' 42.50" 1.000E-01 0.500 F 0.310 -0.966 o 691 2.81 Yes No
2016JC18 O C m 2016-05-16.17219 1.000E-05 12:27:30.530 1.500E-01 0.500 F 0.490 -0.077 -30° 13' 59.00" 1.000E-01 0.500 F 0.310 -0.538 o 691 1.11 Yes No
2016JC18 O C m 2016-05-16.17452 1.000E-05 12:27:27.930 1.500E-01 0.500 F 0.490 1.358 -30° 14' 15.30" 1.000E-01 0.500 F 0.310 0.154 o 691 2.82 Yes No
2010KP10 O C m 2016-05-16.17690 1.000E-05 12:42:13.410 1.500E-01 0.500 F 0.172 0.013 -08° 22' 02.50" 1.000E-01 0.500 F 0.178 0.445 19.7 V 0.70 -0.12 o 691 0.90 Yes Yes
2010KP10 O C m 2016-05-16.17888 1.000E-05 12:42:14.300 1.500E-01 0.500 F 0.172 -0.999 -08° 21' 45.10" 1.000E-01 0.500 F 0.178 -0.270 19.7 V 0.70 -0.12 o 691 2.12 Yes Yes
2010KP10 O C m 2016-05-16.18085 1.000E-05 12:42:15.290 1.500E-01 0.500 F 0.172 -0.454 -08° 21' 27.40" 1.000E-01 0.500 F 0.178 -0.593 19.7 V 0.70 -0.12 o 691 1.52 Yes Yes
2009JR2 O C H 2016-05-16.23788 1.000E-05 15:46:46.810 1.500E-01 0.500 F 0.202 1.063 -30° 11' 29.70" 1.000E-01 0.500 F 0.239 -0.183 o 691 2.23 Yes No
2009JR2 O C H 2016-05-16.23957 1.000E-05 15:46:46.300 1.500E-01 0.500 F 0.202 1.270 -30° 11' 43.60" 1.000E-01 0.500 F 0.239 0.308 o 691 2.74 Yes No
2009JR2 O C H 2016-05-16.24130 1.000E-05 15:46:45.720 1.500E-01 0.500 F 0.202 0.735 -30° 11' 58.10" 1.000E-01 0.500 F 0.239 0.536 o 691 1.94 Yes No
2007JX2 O C H 2016-05-16.24329 1.000E-05 15:43:16.120 1.500E-01 0.500 F 0.141 0.332 -22° 52' 40.60" 1.000E-01 0.500 F 0.068 0.176 19.6 V 0.70 0.70 o 691 0.76 Yes Yes
2007JX2 O C H 2016-05-16.24560 1.000E-05 15:43:15.770 1.500E-01 0.500 F 0.141 0.301 -22° 52' 40.20" 1.000E-01 0.500 F 0.068 0.409 19.6 V 0.70 0.70 o 691 1.03 Yes Yes
2007JX2 O C H 2016-05-16.24793 1.000E-05 15:43:15.400 1.500E-01 0.500 F 0.141 0.037 -22° 52' 40.70" 1.000E-01 0.500 F 0.068 -0.261 19.6 V 0.70 0.70 o 691 0.53 Yes Yes
2016JN34 O C H 2016-05-16.28500 1.000E-05 16:38:04.370 1.500E-01 0.500 F 0.030 -0.969 -06° 58' 10.20" 1.000E-01 0.500 F 0.005 -1.504 o 691 3.56 No No
2014OA2 O C H 2016-05-16.29609 1.000E-05 16:47:31.490 1.500E-01 0.500 F 0.054 -0.292 -01° 22' 53.40" 1.000E-01 0.500 F 0.043 -0.620 o 691 1.37 Yes No
2016JN34 O C H 2016-05-16.29929 1.000E-05 16:38:01.250 1.500E-01 0.500 F 0.030 0.151 -06° 58' 57.70" 1.000E-01 0.500 F 0.005 -1.506 o 691 3.05 Yes No
2014OA2 O C H 2016-05-16.31041 1.000E-05 16:47:31.230 1.500E-01 0.500 F 0.054 -0.256 -01° 22' 47.90" 1.000E-01 0.500 F 0.043 -0.424 o 691 0.99 Yes No
2016JN34 O C H 2016-05-16.31362 1.000E-05 16:37:58.060 1.500E-01 0.500 F 0.030 0.437 -06° 59' 44.70" 1.000E-01 0.500 F 0.005 -0.864 o 691 1.95 Yes No
2014OA2 O C H 2016-05-16.32472 1.000E-05 16:47:31.040 1.500E-01 0.500 F 0.054 0.887 -01° 22' 42.90" 1.000E-01 0.500 F 0.043 -0.724 o 691 2.30 Yes No
2016JE34 O C H 2016-05-16.32925 1.000E-05 17:21:32.260 1.500E-01 0.500 F 0.075 0.161 +06° 55' 22.60" 1.000E-01 0.500 F 0.189 -0.140 o 691 0.43 Yes No
2016JH17 O C H 2016-05-16.33969 1.000E-05 16:40:07.970 1.500E-01 0.500 F 0.315 0.239 +07° 14' 28.70" 1.000E-01 0.500 F 0.112 0.109 20.9 V 0.70 0.09 o 691 0.53 Yes Yes
2016JE34 O C H 2016-05-16.34365 1.000E-05 17:21:32.970 1.500E-01 0.500 F 0.075 -0.855 +06° 55' 37.50" 1.000E-01 0.500 F 0.189 -0.348 o 691 1.86 Yes No
2016JH17 O C H 2016-05-16.35417 1.000E-05 16:40:06.110 1.500E-01 0.500 F 0.315 0.305 +07° 14' 16.60" 1.000E-01 0.500 F 0.112 -0.073 21.2 V 0.70 0.39 o 691 0.63 Yes Yes
2016JE34 O C H 2016-05-16.35816 1.000E-05 17:21:33.800 1.500E-01 0.500 F 0.075 -0.138 +06° 55' 51.90" 1.000E-01 0.500 F 0.189 -1.154 o 691 2.35 Yes No
2016JH17 O C H 2016-05-16.36864 1.000E-05 16:40:04.240 1.500E-01 0.500 F 0.315 0.218 +07° 14' 05.00" 1.000E-01 0.500 F 0.112 0.264 21.0 V 0.70 0.19 o 691 0.69 Yes Yes
2016JR33 O C H 2016-05-16.37116 1.000E-05 16:37:27.010 1.500E-01 0.500 F -0.062 0.919 +14° 48' 39.20" 1.000E-01 0.500 F 0.248 0.448 o 691 2.10 Yes No
2016JR33 O C H 2016-05-16.37317 1.000E-05 16:37:26.870 1.500E-01 0.500 F -0.062 0.779 +14° 48' 56.30" 1.000E-01 0.500 F 0.248 -0.616 o 691 2.02 Yes No
2016JR33 O C H 2016-05-16.37515 1.000E-05 16:37:26.750 1.500E-01 0.500 F -0.062 0.899 +14° 49' 13.70" 1.000E-01 0.500 F 0.248 -1.106 o 691 2.90 Yes No
2016HK19 O C 2016-05-16.37719 1.000E-05 15:51:31.410 1.500E-01 0.500 F 0.100 -0.208 +06° 56' 40.40" 1.000E-01 0.500 F 0.165 0.451 19.6 V 0.70 -0.20 o 691 1.01 Yes Yes
2016HK19 O C 2016-05-16.37938 1.000E-05 15:51:31.350 1.500E-01 0.500 F 0.100 -1.026 +06° 56' 26.00" 1.000E-01 0.500 F 0.165 -0.912 19.5 V 0.70 -0.30 o 691 2.78 Yes Yes
2016HK19 O C 2016-05-16.38155 1.000E-05 15:51:31.400 1.500E-01 0.500 F 0.100 -0.209 +06° 56' 14.20" 1.000E-01 0.500 F 0.165 0.209 19.5 V 0.70 -0.30 o 691 0.60 Yes Yes
2016HF3 O C H 2016-05-16.38326 1.000E-05 15:38:33.980 1.500E-01 0.500 F 0.071 0.374 -04° 17' 22.00" 1.000E-01 0.500 F 0.108 -0.828 o 691 1.83 Yes No
2016HF3 O C H 2016-05-16.38454 1.000E-05 15:38:36.040 1.500E-01 0.500 F 0.071 0.804 -04° 17' 50.20" 1.000E-01 0.500 F 0.108 -0.577 o 691 1.99 Yes No
2016HF3 O C H 2016-05-16.38584 1.000E-05 15:38:38.070 1.500E-01 0.500 F 0.071 0.294 -04° 18' 19.00" 1.000E-01 0.500 F 0.108 -0.477 o 691 1.13 Yes No
2014JY24 O C H 2016-05-16.38765 1.000E-05 15:06:43.600 1.500E-01 0.500 F 0.207 -0.064 -02° 10' 38.80" 1.000E-01 0.500 F 0.146 0.131 19.6 V 0.70 0.23 o 691 0.29 Yes Yes
2014JY24 O C H 2016-05-16.38996 1.000E-05 15:06:43.240 1.500E-01 0.500 F 0.207 -0.152 -02° 10' 41.60" 1.000E-01 0.500 F 0.146 0.052 19.6 V 0.70 0.23 o 691 0.32 Yes Yes
2014JY24 O C H 2016-05-16.39226 1.000E-05 15:06:42.890 1.500E-01 0.500 F 0.207 -0.114 -02° 10' 44.60" 1.000E-01 0.500 F 0.146 -0.239 19.6 V 0.70 0.23 o 691 0.53 Yes Yes
2014TF64 O C H 2016-05-16.41152 1.000E-05 14:30:28.290 1.500E-01 0.500 F 0.123 0.320 +22° 17' 36.80" 1.000E-01 0.500 F 0.319 -0.071 o 691 0.66 Yes No
2016JQ17 O C H 2016-05-16.41351 1.000E-05 14:54:32.260 1.500E-01 0.500 F 0.216 -0.175 +25° 25' 05.80" 1.000E-01 0.500 F 0.196 -0.335 o 691 0.76 Yes No
2014TF64 O C H 2016-05-16.41767 1.000E-05 14:30:27.320 1.500E-01 0.500 F 0.123 0.719 +22° 18' 06.50" 1.000E-01 0.500 F 0.319 -0.528 o 691 1.79 Yes No
2016JQ17 O C H 2016-05-16.41966 1.000E-05 14:54:31.590 1.500E-01 0.500 F 0.216 0.320 +25° 25' 17.50" 1.000E-01 0.500 F 0.196 -0.582 o 691 1.33 Yes No
2014TF64 O C H 2016-05-16.42374 1.000E-05 14:30:26.320 1.500E-01 0.500 F 0.123 0.504 +22° 18' 35.50" 1.000E-01 0.500 F 0.319 -1.284 o 691 2.77 Yes No
2016JQ17 O C H 2016-05-16.42573 1.000E-05 14:54:30.840 1.500E-01 0.500 F 0.216 -0.403 +25° 25' 29.10" 1.000E-01 0.500 F 0.196 -0.769 o 691 1.74 Yes No
2016JN17 O C H 2016-05-16.42847 1.000E-05 15:58:26.750 1.500E-01 0.500 F 0.260 -0.193 +25° 38' 35.30" 1.000E-01 0.500 F 0.352 -0.304 o 691 0.72 Yes No
2016JN17 O C H 2016-05-16.43625 1.000E-05 15:58:25.520 1.500E-01 0.500 F 0.260 -0.227 +25° 38' 24.90" 1.000E-01 0.500 F 0.352 -0.735 o 691 1.54 Yes No
2016JN17 O C H 2016-05-16.44403 1.000E-05 15:58:24.390 1.500E-01 0.500 F 0.260 1.069 +25° 38' 15.20" 1.000E-01 0.500 F 0.352 -0.448 o 691 2.33 Yes No
2016HM2 O C H 2016-05-16.45334 1.000E-05 17:39:47.360 1.500E-01 0.500 F -0.010 -0.017 +13° 58' 24.90" 1.000E-01 0.500 F 0.246 -0.157 21.2 V 0.70 0.35 o 691 0.32 Yes Yes
2016HM2 O C H 2016-05-16.45836 1.000E-05 17:39:47.250 1.500E-01 0.500 F -0.010 0.052 +13° 58' 22.70" 1.000E-01 0.500 F 0.246 -0.436 21.0 V 0.70 0.15 o 691 0.88 Yes Yes
2016HM2 O C H 2016-05-16.46435 1.000E-05 17:39:47.140 1.500E-01 0.500 F -0.010 0.435 +13° 58' 20.40" 1.000E-01 0.500 F 0.246 -0.435 21.0 V 0.70 0.15 o 691 1.23 Yes Yes
2011UU20 O C H 2016-05-17.16400 1.000E-05 09:02:02.970 1.500E-01 0.500 F -0.035 2.908 +13° 30' 10.10" 1.000E-01 0.500 F 0.224 -1.299 o 691 6.33 No No
2011UU20 O C H 2016-05-17.16749 1.000E-05 09:02:03.580 1.500E-01 0.500 F -0.035 1.963 +13° 30' 02.90" 1.000E-01 0.500 F 0.224 -1.348 o 691 4.73 No No
2011UU20 O C H 2016-05-17.17097 1.000E-05 09:02:04.220 1.500E-01 0.500 F -0.035 1.482 +13° 29' 55.60" 1.000E-01 0.500 F 0.224 -1.517 o 691 4.21 No No
2003KO2 O C H 2016-05-17.18732 1.000E-05 11:29:13.220 1.500E-01 0.500 F -0.058 -0.399 +31° 05' 15.60" 1.000E-01 0.500 F 0.307 0.139 19.6 V 0.70 0.10 o 691 0.85 Yes Yes
2003KO2 O C H 2016-05-17.18963 1.000E-05 11:29:13.590 1.500E-01 0.500 F -0.058 -0.497 +31° 05' 15.30" 1.000E-01 0.500 F 0.307 -0.408 19.7 V 0.70 0.20 o 691 1.29 Yes Yes
2006UK O C H 2016-05-17.20716 1.000E-05 13:42:38.560 1.500E-01 0.500 F 0.119 0.515 -18° 27' 05.90" 1.000E-01 0.500 F 0.005 0.349 17.7 V 0.70 0.46 o 691 1.25 Yes Yes
2006UK O C H 2016-05-17.20950 1.000E-05 13:42:39.260 1.500E-01 0.500 F 0.119 0.266 -18° 27' 01.50" 1.000E-01 0.500 F 0.005 0.274 17.6 V 0.70 0.36 o 691 0.77 Yes Yes
2006UK O C H 2016-05-17.21183 1.000E-05 13:42:39.930 1.500E-01 0.500 F 0.119 -0.363 -18° 26' 57.40" 1.000E-01 0.500 F 0.005 -0.085 17.6 V 0.70 0.36 o 691 0.75 Yes Yes
2014JY24 O C H 2016-05-17.21507 1.000E-05 15:04:42.630 1.500E-01 0.750 F 0.193 0.184 -02° 26' 50.20" 1.000E-01 0.750 F 0.128 0.046 19.8 V 0.70 0.39 o 691 0.25 Yes Yes
2014JY24 O C H 2016-05-17.21736 1.000E-05 15:04:42.250 1.500E-01 0.750 F 0.193 -0.372 -02° 26' 52.50" 1.000E-01 0.750 F 0.128 0.423 19.7 V 0.70 0.29 o 691 0.75 Yes Yes
2014JY24 O C H 2016-05-17.21967 1.000E-05 15:04:41.850 1.500E-01 0.750 F 0.193 -1.182 -02° 26' 55.30" 1.000E-01 0.750 F 0.128 0.323 19.7 V 0.70 0.29 o 691 1.64 Yes Yes
2014JY24 O C H 2016-05-17.22541 1.000E-05 15:04:41.070 1.500E-01 0.750 F 0.193 0.013 -02° 27' 01.90" 1.000E-01 0.750 F 0.128 0.433 19.9 V 0.70 0.48 o 691 0.58 Yes Yes
2014JY24 O C H 2016-05-17.22770 1.000E-05 15:04:40.690 1.500E-01 0.750 F 0.193 -0.540 -02° 27' 04.40" 1.000E-01 0.750 F 0.128 0.609 19.6 V 0.70 0.18 o 691 1.09 Yes Yes
2014JY24 O C H 2016-05-17.23005 1.000E-05 15:04:40.400 1.500E-01 0.750 F 0.193 0.390 -02° 27' 07.60" 1.000E-01 0.750 F 0.128 0.156 19.8 V 0.70 0.38 o 691 0.56 Yes Yes
2014JY24 O C H 2016-05-17.23348 1.000E-05 15:04:39.880 1.500E-01 0.750 F 0.193 0.300 -02° 27' 11.60" 1.000E-01 0.750 F 0.128 0.164 20.0 V 0.70 0.58 o 691 0.46 Yes Yes
2014JY24 O C H 2016-05-17.23582 1.000E-05 15:04:39.480 1.500E-01 0.750 F 0.193 -0.439 -02° 27' 14.30" 1.000E-01 0.750 F 0.128 0.198 19.9 V 0.70 0.48 o 691 0.64 Yes Yes
2014JY24 O C H 2016-05-17.23815 1.000E-05 15:04:39.160 1.500E-01 0.750 F 0.193 -0.002 -02° 27' 17.30" 1.000E-01 0.750 F 0.128 -0.079 19.9 V 0.70 0.48 o 691 0.11 Yes Yes
2014TF64 O C m 2016-05-17.24702 1.000E-05 14:28:16.800 1.500E-01 0.500 F 0.140 -0.413 +23° 25' 36.10" 1.000E-01 0.500 F 0.270 -1.641 o 691 3.36 No No
2014TF64 O C m 2016-05-17.25025 1.000E-05 14:28:16.190 1.500E-01 0.500 F 0.140 -1.480 +23° 25' 52.10" 1.000E-01 0.500 F 0.270 -1.252 o 691 3.85 No No
2014TF64 O C m 2016-05-17.25352 1.000E-05 14:28:15.790 1.500E-01 0.500 F 0.140 0.434 +23° 26' 08.10" 1.000E-01 0.500 F 0.270 -1.052 o 691 2.29 Yes No
2016JQ17 O C H 2016-05-17.25942 1.000E-05 14:52:57.600 1.500E-01 0.500 F 0.209 0.211 +25° 52' 27.60" 1.000E-01 0.500 F 0.232 -2.148 o 691 4.30 No No
2016JQ17 O C H 2016-05-17.26379 1.000E-05 14:52:57.160 1.500E-01 0.500 F 0.209 1.143 +25° 52' 37.30" 1.000E-01 0.500 F 0.232 -0.863 o 691 2.87 Yes No
2016JQ17 O C H 2016-05-17.26818 1.000E-05 14:52:56.530 1.500E-01 0.500 F 0.209 -0.458 +25° 52' 45.80" 1.000E-01 0.500 F 0.232 -0.814 o 691 1.87 Yes No
2016HP3 O C m 2016-05-17.27140 1.000E-05 15:06:12.400 1.500E-01 0.500 F 0.001 0.012 +20° 58' 23.90" 1.000E-01 0.500 F 0.328 -0.931 o 691 1.90 Yes No
2016HP3 O C m 2016-05-17.27347 1.000E-05 15:06:13.730 1.500E-01 0.500 F 0.001 0.458 +20° 58' 41.50" 1.000E-01 0.500 F 0.328 -1.140 o 691 2.50 Yes No
2016HP3 O C m 2016-05-17.27555 1.000E-05 15:06:14.930 1.500E-01 0.500 F 0.001 -1.008 +20° 58' 58.50" 1.000E-01 0.500 F 0.328 -2.031 o 691 4.44 No No
2016JB29 O C m 2016-05-17.28910 1.000E-05 15:44:27.540 1.500E-01 0.500 F 0.120 0.240 +10° 57' 57.10" 1.000E-01 0.500 F 0.288 -1.745 o 691 3.51 No No
2016JB29 O C m 2016-05-17.29470 1.000E-05 15:44:28.530 1.500E-01 0.500 F 0.120 0.090 +10° 58' 01.50" 1.000E-01 0.500 F 0.288 -0.849 o 691 1.71 Yes No
2016JB29 O C m 2016-05-17.30028 1.000E-05 15:44:29.370 1.500E-01 0.500 F 0.120 -2.216 +10° 58' 04.20" 1.000E-01 0.500 F 0.288 -1.623 o 691 5.48 No No
2016HK19 O C H 2016-05-17.31797 1.000E-05 15:51:44.090 1.500E-01 0.500 F 0.134 0.167 +05° 21' 29.00" 1.000E-01 0.500 F 0.167 0.698 19.8 V 0.70 0.08 o 691 1.46 Yes Yes
2016HK19 O C H 2016-05-17.32005 1.000E-05 15:51:44.070 1.500E-01 0.500 F 0.134 -0.019 +05° 21' 15.10" 1.000E-01 0.500 F 0.167 -0.307 19.8 V 0.70 0.08 o 691 0.62 Yes Yes
2016HK19 O C H 2016-05-17.32217 1.000E-05 15:51:44.060 1.500E-01 0.500 F 0.134 -0.053 +05° 21' 02.10" 1.000E-01 0.500 F 0.167 -0.162 19.7 V 0.70 -0.02 o 691 0.35 Yes Yes
2016JN34 O C m 2016-05-17.32567 1.000E-05 16:34:12.530 1.500E-01 0.500 F 0.088 -0.408 -07° 56' 55.70" 1.000E-01 0.500 F 0.185 -1.495 o 691 3.12 Yes No
2016JN34 O C m 2016-05-17.32910 1.000E-05 16:34:11.780 1.500E-01 0.500 F 0.088 0.420 -07° 57' 06.70" 1.000E-01 0.500 F 0.185 -0.631 o 691 1.53 Yes No
2016JN34 O C m 2016-05-17.33254 1.000E-05 16:34:11.040 1.500E-01 0.500 F 0.088 1.435 -07° 57' 17.60" 1.000E-01 0.500 F 0.185 0.367 o 691 2.97 Yes No
2007JX2 O C H 2016-05-17.33619 1.000E-05 15:40:41.990 1.500E-01 0.500 F 0.159 0.455 -22° 50' 56.30" 1.000E-01 0.500 F -0.035 -0.684 o 691 1.66 Yes No
2007JX2 O C H 2016-05-17.33888 1.000E-05 15:40:41.590 1.500E-01 0.500 F 0.159 0.342 -22° 50' 55.90" 1.000E-01 0.500 F -0.035 -0.580 o 691 1.36 Yes No
2007JX2 O C H 2016-05-17.34156 1.000E-05 15:40:41.200 1.500E-01 0.500 F 0.159 0.345 -22° 50' 55.60" 1.000E-01 0.500 F -0.035 -0.576 o 691 1.36 Yes No
2016EP86 O C 2016-05-17.34737 1.000E-05 16:50:10.180 1.500E-01 0.500 F 0.044 -0.075 -00° 39' 30.50" 1.000E-01 0.500 F 0.093 0.123 19.5 V 0.70 0.00 o 691 0.29 Yes Yes
2014OA2 O C H 2016-05-17.34737 1.000E-05 16:47:19.530 1.500E-01 0.500 F 0.023 0.556 -01° 16' 33.50" 1.000E-01 0.500 F 0.079 -0.255 21.1 V 0.70 0.35 o 691 1.23 Yes Yes
2016EP86 O C 2016-05-17.35762 1.000E-05 16:50:10.790 1.500E-01 0.500 F 0.044 -0.455 -00° 39' 29.60" 1.000E-01 0.500 F 0.093 -0.023 19.5 V 0.70 0.00 o 691 0.92 Yes Yes
2014OA2 O C H 2016-05-17.35762 1.000E-05 16:47:19.260 1.500E-01 0.500 F 0.023 -0.226 -01° 16' 29.80" 1.000E-01 0.500 F 0.079 -0.146 21.3 V 0.70 0.55 o 691 0.54 Yes Yes
2016JH17 O C H 2016-05-17.36276 1.000E-05 16:37:59.910 1.500E-01 0.500 F 0.315 -1.222 +06° 59' 54.70" 1.000E-01 0.500 F 0.112 -1.040 o 691 3.20 No No
2016EP86 O C 2016-05-17.36787 1.000E-05 16:50:11.460 1.500E-01 0.500 F 0.044 0.069 -00° 39' 28.70" 1.000E-01 0.500 F 0.093 -0.167 19.6 V 0.70 0.10 o 691 0.36 Yes Yes

[1-200] [201-400] [401-600] [601-800] [801-1000] [1001-1200] [1201-1400] [1401-1600] [1601-1800] [1801-2000] [2001-2200] [2201-2400] [2401-2600] [2601-2800] [2801-3000] [3001-3200] [3201-3400] [3401-3600] [3601-3800] [3801-4000] [4001-4200] [4201-4400] [4401-4600] [4601-4800] [4801-5000] [5001-5200] [5201-5400] [5401-5600] [5601-5800] [5801-6000] [6001-6200] [6201-6400] [6401-6600] [6601-6800] [6801-7000] [7001-7200] [7201-7400] [7401-7600] [7601-7800] [7801-8000] [8001-8200] [8201-8400] [8401-8600] [8601-8800] [8801-9000] [9001-9200] [9201-9400] [9401-9600] [9601-9800] [9801-10000] [10001-10200] [10201-10400] [10401-10600] [10601-10800] [10801-11000] [11001-11200] [11201-11400] [11401-11600] [11601-11800] [11801-12000] [12001-12200] [12201-12400] [12401-12600] [12601-12800] [12801-13000] [13001-13200] [13201-13400] [13401-13600] [13601-13800] [13801-14000] [14001-14200] [14201-14400] [14401-14600] [14601-14800] [14801-15000] [15001-15200] [15201-15400] [15401-15600] [15601-15800] [15801-16000] [16001-16200] [16201-16400] [16401-16600] [16601-16800] [16801-17000] [17001-17200] [17201-17400] [17401-17600] [17601-17800] [17801-18000] [18001-18200] [18201-18400] [18401-18600] [18601-18800] [18801-19000] [19001-19200] [19201-19400] [19401-19600] [19601-19800] [19801-20000] [20001-20200] [20201-20400] [20401-20600] [20601-20800] [20801-21000] [21001-21200] [21201-21400] [21401-21600] [21601-21800] [21801-22000] [22001-22200] [22201-22400] [22401-22600] [22601-22800] [22801-23000] [23001-23200] [23201-23400] [23401-23600] [23601-23800] [23801-24000] [24001-24200] [24201-24400] [24401-24600] [24601-24800] [24801-25000] [25001-25200] [25201-25400] [25401-25600] [25601-25800] [25801-26000] [26001-26200] [26201-26400] [26401-26600] [26601-26800] [26801-27000] [27001-27200] [27201-27400] [27401-27600] [27601-27800] [27801-28000] [28001-28200] [28201-28400] [28401-28600] [28601-28800] [28801-29000] [29001-29200] [29201-29400] [29401-29600] [29601-29800] [29801-30000] [30001-30200] [30201-30400] [30401-30600] [30601-30800] [30801-31000] [31001-31200] [31201-31400] [31401-31600] [31601-31800] [31801-32000] [32001-32200] [32201-32400] [32401-32600] [32601-32800] [32801-33000] [33001-33200] [33201-33400] [33401-33600] [33601-33800] [33801-34000] [34001-34200] [34201-34400] [34401-34600] [34601-34800] [34801-35000] [35001-35200] [35201-35400] [35401-35600] [35601-35800] [35801-36000] [36001-36200] [36201-36400] [36401-36600] [36601-36800] [36801-37000] [37001-37200] [37201-37400] [37401-37600] [37601-37800] [37801-38000] [38001-38200] [38201-38400] [38401-38600] [38601-38800] [38801-39000] [39001-39200] [39201-39400] [39401-39600] [39601-39800] [39801-40000] [40001-40200] [40201-40400] [40401-40600] [40601-40800] [40801-41000] [41001-41200] [41201-41400] [41401-41600] [41601-41800] [41801-42000] [42001-42200] [42201-42400] [42401-42600] [42601-42800] [42801-43000] [43001-43200] [43201-43400] [43401-43600] [43601-43800] [43801-44000] [44001-44200] [44201-44400] [44401-44600] [44601-44800] [44801-45000] [45001-45200] [45201-45400] [45401-45600] [45601-45800] [45801-46000] [46001-46200] [46201-46400] [46401-46600] [46601-46800] [46801-47000] [47001-47200] [47201-47400] [47401-47600] [47601-47800] [47801-48000] [48001-48200] [48201-48400] [48401-48600] [48601-48800] [48801-49000] [49001-49200] [49201-49400] [49401-49600] [49601-49800] [49801-50000] [50001-50200] [50201-50388]